Flight Track Log - Related Links

Times and Time Zones

All times are in EDT time to prevent confusion due to time zone crossing. See the VH-VHO flight status page for this flight to view local times or setup timezone preferences in your user account.

Time Position Orientation Groundspeed Altitude Reporting Facility
EDT Latitude Longitude Course Direction KTS MPH feet Rate Location/Type
Sat 10:07:02 PM -33.4215 149.1889 137° Southeast 132 152 5,000  Level Aus ATC (RADAR)
Sat 10:07:32 PM -33.4327 149.2015 137° Southeast 116 133 5,800 912 Climbing Aus ATC (RADAR)
Sat 10:09:07 PM -33.4731 149.2429 139° Southeast 130 150 6,900 471 Climbing Aus ATC (RADAR)
Sat 10:09:52 PM -33.4988 149.2694 139° Southeast 161 185 6,900 92 Level Aus ATC (RADAR)
Sat 10:10:12 PM -33.5094 149.2829 133° Southeast 164 189 7,000  Climbing Aus ATC (RADAR)
Sat 10:10:47 PM -33.5292 149.3072 134° Southeast 172 198 6,900 75 Descending Aus ATC (RADAR)
Sat 10:11:32 PM -33.5547 149.3396 133° Southeast 176 203 7,100  Climbing Aus ATC (RADAR)
Sat 10:12:07 PM -33.5744 149.3667 131° Southeast 182 209 6,900 -171 Descending Aus ATC (RADAR)
Sat 10:12:42 PM -33.5948 149.3929 133° Southeast 183 211 6,900 83 Level Aus ATC (RADAR)
Sat 10:14:31 PM -33.6653 149.4667 139° Southeast 186 214 7,100 78 Climbing Aus ATC (RADAR)
Sat 10:15:16 PM -33.6925 149.5000 135° Southeast 186 214 7,100  Level Aus ATC (RADAR)
Sat 10:15:41 PM -33.7076 149.5186 134° Southeast 185 213 7,100 -100 Level Aus ATC (RADAR)
Sat 10:16:16 PM -33.7287 149.5442 135° Southeast 182 209 7,000 71 Descending Aus ATC (RADAR)
Sat 10:17:06 PM -33.7583 149.5807 134° Southeast 181 208 7,200 -71 Climbing Aus ATC (RADAR)
Sat 10:17:41 PM -33.7788 149.6059 134° Southeast 179 206 6,900 -156 Descending Aus ATC (RADAR)
Sat 10:19:40 PM -33.8495 149.6936 134° Southeast 181 208 6,800  Descending Aus ATC (RADAR)
Sat 10:20:25 PM -33.8758 149.7263 134° Southeast 180 207 6,900 400 Climbing Aus ATC (RADAR)
Sat 10:20:40 PM -33.8848 149.7374 134° Southeast 182 209 7,200 327 Climbing Aus ATC (RADAR)
Sat 10:21:20 PM -33.9086 149.7671 134° Southeast 183 211 7,200 -126 Level Aus ATC (RADAR)
Sat 10:22:15 PM -33.9420 149.8083 134° Southeast 186 214 7,000 -71 Descending Aus ATC (RADAR)
Sat 10:22:45 PM -33.9601 149.8308 134° Southeast 185 213 7,100  Climbing Aus ATC (RADAR)
Sat 10:23:35 PM -33.9899 149.8679 134° Southeast 184 212 7,000  Descending Aus ATC (RADAR)
Sat 10:25:00 PM -34.0304 149.9407 124° Southeast 198 228 7,100  Climbing Aus ATC (RADAR)
Sat 10:25:15 PM -34.0311 149.9560 93° East 190 219 7,000  Descending Aus ATC (RADAR)
Sat 10:25:50 PM -34.0337 149.9924 95° East 183 211 7,100 -75 Climbing Aus ATC (RADAR)
Sat 10:26:35 PM -34.0360 150.0417 93° East 190 219 6,900  Descending Aus ATC (RADAR)
Sat 10:27:10 PM -34.0369 150.0807 92° East 196 226 7,100 171 Climbing Aus ATC (RADAR)
Sat 10:27:45 PM -34.0365 150.1196 89° East 194 223 7,100 -333 Level Aus ATC (RADAR)
Sat 10:28:40 PM -34.0502 150.1758 106° East 186 214 6,600 -518 Descending Aus ATC (RADAR)
Sat 10:30:04 PM -34.0593 150.2648 97° East 185 213 5,900 -532 Descending Aus ATC (RADAR)
Sat 10:30:44 PM -34.0651 150.3061 100° East 182 209 5,500 -500 Descending Aus ATC (RADAR)
Sat 10:31:04 PM -34.0664 150.3264 94° East 178 205 5,400  Descending Aus ATC (RADAR)
Sat 10:31:39 PM -34.0705 150.3598 98° East 168 193 5,500 126 Climbing Aus ATC (RADAR)
Sat 10:32:39 PM -34.0785 150.4127 100° East 152 175 5,600  Climbing Aus ATC (RADAR)
Sat 10:33:14 PM -34.0905 150.4360 122° Southeast 141 162 5,500 -667 Descending Aus ATC (RADAR)
Sat 10:34:09 PM -34.1095 150.4739 121° Southeast 139 160 4,600 -929 Descending Aus ATC (RADAR)
Sat 10:35:49 PM -34.1063 150.5463 87° East 135 155 3,100 -800 Descending Aus ATC (RADAR)
Sat 10:36:09 PM -34.1003 150.5605 63° Northeast 136 157 3,000 -840 Descending Aus ATC (RADAR)
Sat 10:36:39 PM -34.0926 150.5822 67° East 136 157 2,400 -880 Descending Aus ATC (RADAR)
Sat 10:37:24 PM -34.0792 150.6112 61° Northeast 128 147 1,900 -635 Descending Aus ATC (RADAR)
Sat 10:38:04 PM -34.0619 150.6342 48° Northeast 135 155 1,500 -429 Descending Aus ATC (RADAR)
Sat 10:38:48 PM -34.0446 150.6606 52° Northeast 136 157 1,300 -348 Descending Aus ATC (RADAR)
Sat 10:39:13 PM -34.0304 150.6673 21° North 130 150 1,100 -80 Descending Aus ATC (RADAR)
Sat 10:40:03 PM -34.0142 150.6985 58° Northeast 129 148 1,200 -133 Climbing Aus ATC (RADAR)
Sat 10:40:43 PM -34.0201 150.7204 108° East 117 135 900 -675 Descending Aus ATC (RADAR)
Sat 10:41:23 PM -34.0321 150.7023 231° Southwest 103 119 300 -462 Descending Aus ATC (RADAR)
Sat 10:41:48 PM -34.0367 150.6915 243° Southwest 91 105 400 240 Climbing Aus ATC (RADAR)
Sat 10:44:55 PM -34.0367 150.6915 224° Southwest -128 Descending Aus ATC (Calculated)
Sat 10:47:00 PM -34.0403 150.6872 224° Southwest  Level Estimated
Sat 10:48:00 PM -34.0403 150.6872 40° Northeast  Level Estimated
Sat 10:49:00 PM -34.0403 150.6872 40° Northeast  Level Estimated
Sat 10:50:00 PM -34.0403 150.6872 40° Northeast  Level Estimated
Sat 10:51:00 PM -34.0403 150.6872 40° Northeast  Level Estimated
Sat 10:52:00 PM -34.0403 150.6872 40° Northeast  Level Estimated
Sat 10:53:00 PM -34.0403 150.6872 40° Northeast  Level Estimated
Sat 10:54:00 PM -34.0403 150.6872 40° Northeast  Level Estimated
Sat 10:55:00 PM -34.0403 150.6872 40° Northeast  Level Estimated
Sat 10:56:00 PM -34.0403 150.6872 40° Northeast  Level Estimated
Sat 10:57:00 PM -34.0403 150.6872 40° Northeast  Level Estimated
Sat 10:58:00 PM -34.0403 150.6872 40° Northeast  Level Estimated
Sat 10:59:00 PM -34.0403 150.6872 40° Northeast  Level Estimated
Sat 11:00:00 PM -34.0403 150.6872 40° Northeast  Level Estimated
Sat 11:01:00 PM -34.0403 150.6872 40° Northeast  Level Estimated
Sat 11:02:00 PM -34.0403 150.6872 40° Northeast  Level Estimated
Sat 11:03:00 PM -34.0403 150.6872 40° Northeast  Level Estimated

Login

Don't have an account? Register now (free) for customized features, flight alerts, and more!